createdAt,value
2022-10-13T00:03:04.126Z,101717.63
2022-10-13T00:08:08.042Z,101719.31
2022-10-13T00:13:18.469Z,101676.66
2022-10-13T00:18:21.060Z,101706.34
2022-10-13T00:23:25.464Z,101698.00
2022-10-13T00:28:28.164Z,101703.31
2022-10-13T00:33:30.725Z,101705.72
2022-10-13T00:38:36.349Z,101707.59
2022-10-13T00:43:58.173Z,101696.88
2022-10-13T00:49:03.684Z,101675.63
2022-10-13T00:54:10.839Z,101688.69
2022-10-13T00:59:22.516Z,101689.38
2022-10-13T01:04:29.197Z,101682.13
2022-10-13T01:09:37.604Z,101672.72
2022-10-13T01:14:49.342Z,101674.25
2022-10-13T01:20:11.733Z,101674.09
2022-10-13T01:25:34.714Z,101672.19
2022-10-13T01:30:46.644Z,101666.91
2022-10-13T01:36:01.800Z,101668.78
2022-10-13T01:41:12.635Z,101663.06
2022-10-13T01:46:22.638Z,101660.47
2022-10-13T01:51:27.861Z,101657.00
2022-10-13T01:56:30.532Z,101640.91
2022-10-13T02:01:47.947Z,101649.53
2022-10-13T02:07:03.151Z,101648.66
2022-10-13T02:12:10.876Z,101638.16
2022-10-13T02:17:17.080Z,101638.00
2022-10-13T02:22:23.280Z,101636.09
2022-10-13T02:27:26.620Z,101606.88
2022-10-13T02:32:30.903Z,101630.97
2022-10-13T02:37:33.933Z,101629.09
2022-10-13T02:42:36.470Z,101631.91
2022-10-13T02:47:40.704Z,101628.31
2022-10-13T02:52:43.280Z,101615.84
2022-10-13T02:57:45.822Z,101618.28
2022-10-13T03:02:49.695Z,101612.84
2022-10-13T03:07:52.229Z,101612.84
2022-10-13T03:12:55.442Z,101610.94
2022-10-13T03:17:59.316Z,101602.81
2022-10-13T03:23:01.874Z,101596.56
2022-10-13T03:28:04.498Z,101607.78
2022-10-13T03:33:08.378Z,101592.63
2022-10-13T03:38:10.954Z,101590.56
2022-10-13T03:43:13.508Z,101594.91
2022-10-13T03:48:17.674Z,101585.34
2022-10-13T03:53:20.722Z,101579.94
2022-10-13T03:58:24.542Z,101566.84
2022-10-13T04:03:30.402Z,101566.97
2022-10-13T04:08:34.342Z,101572.25
2022-10-13T04:13:36.967Z,101577.66
2022-10-13T04:18:44.701Z,101568.75
2022-10-13T04:23:48.056Z,101561.81
2022-10-13T04:28:52.544Z,101568.00
2022-10-13T04:33:56.507Z,101565.34
2022-10-13T04:38:59.272Z,101555.47
2022-10-13T04:44:02.529Z,101552.06
2022-10-13T04:49:06.760Z,101541.94
2022-10-13T04:54:10.357Z,101547.25
2022-10-13T04:59:13.302Z,101542.91
2022-10-13T05:04:17.187Z,101547.34
2022-10-13T05:09:19.751Z,101533.72
2022-10-13T05:14:22.545Z,101531.94
2022-10-13T05:19:26.704Z,101528.97
2022-10-13T05:24:36.480Z,101515.16
2022-10-13T05:29:39.987Z,101511.41
2022-10-13T05:34:43.860Z,101510.84
2022-10-13T05:39:48.889Z,101498.81
2022-10-13T05:44:52.119Z,101498.03
2022-10-13T05:49:56.386Z,101467.41
2022-10-13T05:55:04.065Z,101400.47
2022-10-13T06:00:10.575Z,101509.28
2022-10-13T06:05:20.630Z,101504.19
2022-10-13T06:10:28.369Z,101490.72
2022-10-13T06:15:31.107Z,101498.59
2022-10-13T06:20:35.271Z,101488.16
2022-10-13T06:25:38.116Z,101495.16
2022-10-13T06:30:40.788Z,101497.53
2022-10-13T06:35:44.652Z,101494.72
2022-10-13T06:40:47.712Z,101501.34
2022-10-13T06:45:50.469Z,101502.00
2022-10-13T06:50:54.536Z,101512.69
2022-10-13T06:55:58.005Z,101513.28
2022-10-13T07:01:00.669Z,101514.53
2022-10-13T07:06:07.041Z,101497.47
2022-10-13T07:11:15.916Z,101513.03
2022-10-13T07:16:23.253Z,101510.63
2022-10-13T07:21:27.340Z,101505.72
2022-10-13T07:26:29.869Z,101499.16
2022-10-13T07:31:32.454Z,101504.50
2022-10-13T07:36:37.702Z,101507.22
2022-10-13T07:41:41.113Z,101502.66
2022-10-13T07:46:43.670Z,101519.69
2022-10-13T07:51:47.575Z,101513.50
2022-10-13T07:56:55.988Z,101517.44
2022-10-13T08:02:00.389Z,101512.13
2022-10-13T08:07:05.552Z,101514.78
2022-10-13T08:12:08.197Z,101513.09
2022-10-13T08:17:10.741Z,101513.75
2022-10-13T08:22:15.047Z,101517.91
2022-10-13T08:27:22.785Z,101502.94
2022-10-13T08:32:25.457Z,101510.28
2022-10-13T08:37:29.354Z,101504.84
2022-10-13T08:42:31.932Z,101507.53
2022-10-13T08:47:43.041Z,101503.25
2022-10-13T08:52:55.924Z,101499.97
2022-10-13T08:57:59.395Z,101487.53
2022-10-13T09:03:18.685Z,101496.50
2022-10-13T09:08:24.601Z,101493.41
2022-10-13T09:13:27.214Z,101492.16
2022-10-13T09:18:33.012Z,101482.66
2022-10-13T09:23:39.579Z,101471.25
2022-10-13T09:28:44.549Z,101469.31
2022-10-13T09:33:47.580Z,101472.81
2022-10-13T09:44:29.005Z,101466.81
2022-10-13T09:49:38.272Z,101467.22
2022-10-13T09:54:47.220Z,101455.69
2022-10-13T09:59:53.107Z,101410.03
2022-10-13T10:05:00.977Z,101453.84
2022-10-13T10:10:09.325Z,101449.03
2022-10-13T10:15:23.940Z,101449.78
2022-10-13T10:20:42.144Z,101444.34
2022-10-13T10:25:49.977Z,101425.78
2022-10-13T10:31:03.775Z,101433.53
2022-10-13T10:36:16.698Z,101417.81
2022-10-13T10:41:37.151Z,101438.16
2022-10-13T10:46:45.273Z,101432.84
2022-10-13T10:51:48.626Z,101423.31
2022-10-13T10:56:56.851Z,101420.50
2022-10-13T11:02:20.048Z,101423.09
2022-10-13T11:08:02.392Z,101426.50
2022-10-13T11:13:26.211Z,101420.69
2022-10-13T11:19:05.350Z,101412.66
2022-10-13T11:24:46.112Z,101407.56
2022-10-13T11:29:57.764Z,101409.75
2022-10-13T11:35:03.238Z,101410.59
2022-10-13T11:40:20.862Z,101412.78
2022-10-13T11:45:38.208Z,101404.72
2022-10-13T11:50:48.278Z,101405.44
2022-10-13T11:55:52.414Z,101403.66
2022-10-13T12:00:57.075Z,101396.59
2022-10-13T12:06:04.447Z,101382.28
2022-10-13T12:11:10.173Z,101385.75
2022-10-13T12:16:14.461Z,101390.25
2022-10-13T12:21:21.130Z,101385.41
2022-10-13T12:26:25.676Z,101385.41
2022-10-13T12:31:30.548Z,101374.72
2022-10-13T12:36:36.221Z,101368.06
2022-10-13T12:41:43.740Z,101347.56
2022-10-13T12:46:48.100Z,101351.81
2022-10-13T12:51:55.100Z,101348.03
2022-10-13T12:56:59.695Z,101355.69
2022-10-13T13:02:04.792Z,101360.41
2022-10-13T13:07:27.532Z,101325.81
2022-10-13T13:12:31.205Z,101331.66
2022-10-13T13:22:57.825Z,101353.72
2022-10-13T13:28:00.381Z,101344.50
2022-10-13T13:33:03.646Z,101340.38
2022-10-13T13:38:07.552Z,101337.34
2022-10-13T13:43:10.439Z,101336.50
2022-10-13T13:48:13.798Z,101329.81
2022-10-13T13:53:17.673Z,101337.97
2022-10-13T13:58:20.737Z,101334.31
2022-10-13T14:03:23.337Z,101336.09
2022-10-13T14:08:27.253Z,101336.34
2022-10-13T14:13:29.798Z,101322.75
2022-10-13T14:18:32.755Z,101334.13
2022-10-13T14:23:36.661Z,101332.19
2022-10-13T14:28:41.460Z,101331.25
2022-10-13T14:33:44.032Z,101324.44
2022-10-13T14:38:52.501Z,101319.97
2022-10-13T14:43:57.012Z,101316.16
2022-10-13T14:49:00.269Z,101310.97
2022-10-13T14:54:04.835Z,101312.75
2022-10-13T14:59:08.509Z,101308.41
2022-10-13T15:04:13.884Z,101299.66
2022-10-13T15:09:17.884Z,101299.53
2022-10-13T15:14:20.404Z,101302.00
2022-10-13T15:19:22.979Z,101289.00
2022-10-13T15:24:27.257Z,101295.78
2022-10-13T15:29:31.483Z,101290.72
2022-10-13T15:34:34.181Z,101293.69
2022-10-13T15:39:38.273Z,101282.28
2022-10-13T15:45:04.951Z,101290.06
2022-10-13T15:50:03.997Z,101284.97
2022-10-13T15:55:08.596Z,101287.50
2022-10-13T16:00:14.055Z,101266.00
2022-10-13T16:05:17.169Z,101276.06
2022-10-13T16:10:21.042Z,101279.81
2022-10-13T16:15:23.547Z,101283.69
2022-10-13T16:20:26.222Z,101279.56
2022-10-13T16:25:31.844Z,101224.72
2022-10-13T16:30:38.550Z,101271.69
2022-10-13T16:35:41.085Z,101271.06
2022-10-13T16:40:46.307Z,101280.13
2022-10-13T16:46:00.066Z,101274.06
2022-10-13T16:51:06.352Z,101268.97
2022-10-13T16:56:10.567Z,101275.88
2022-10-13T17:01:14.069Z,101274.78
2022-10-13T17:06:17.661Z,101275.75
2022-10-13T17:11:23.876Z,101275.28
2022-10-13T17:16:27.805Z,101274.50
2022-10-13T17:21:30.338Z,101277.31
2022-10-13T17:26:34.225Z,101281.78
2022-10-13T17:31:37.287Z,101289.91
2022-10-13T17:36:40.026Z,101287.34
2022-10-13T17:41:46.691Z,101287.44
2022-10-13T17:46:49.874Z,101300.03
2022-10-13T17:51:54.289Z,101298.22
2022-10-13T17:56:58.147Z,101305.25
2022-10-13T18:02:00.767Z,101301.84
2022-10-13T18:07:03.362Z,101305.44
2022-10-13T18:12:07.491Z,101310.78
2022-10-13T18:17:10.029Z,101307.38
2022-10-13T18:22:12.561Z,101313.81
2022-10-13T18:27:16.549Z,101311.47
2022-10-13T18:32:19.332Z,101311.59
2022-10-13T18:37:22.354Z,101320.88
2022-10-13T18:42:27.551Z,101315.78
2022-10-13T18:47:30.198Z,101306.81
2022-10-13T18:52:32.843Z,101315.66
2022-10-13T18:57:38.104Z,101313.31
2022-10-13T19:02:40.614Z,101322.56
2022-10-13T19:07:43.138Z,101329.16
2022-10-13T19:12:47.211Z,101323.78
2022-10-13T19:17:49.761Z,101324.91
2022-10-13T19:22:52.295Z,101333.00
2022-10-13T19:27:56.216Z,101327.50
2022-10-13T19:32:59.127Z,101322.81
2022-10-13T19:38:01.734Z,101332.69
2022-10-13T19:43:06.124Z,101333.88
2022-10-13T19:48:08.639Z,101332.81
2022-10-13T19:53:11.810Z,101334.31
2022-10-13T19:58:17.120Z,101331.47
2022-10-13T20:03:19.692Z,101327.09
2022-10-13T20:08:26.830Z,101327.44
2022-10-13T20:13:30.701Z,101322.50
2022-10-13T20:25:24.269Z,101331.16
2022-10-13T20:30:29.986Z,101332.53
2022-10-13T20:35:34.207Z,101337.09
2022-10-13T20:40:38.786Z,101346.22
2022-10-13T20:45:44.323Z,101340.91
2022-10-13T20:50:49.629Z,101337.44
2022-10-13T20:55:56.557Z,101347.56
2022-10-13T21:01:00.587Z,101342.44
2022-10-13T21:06:05.129Z,101327.94
2022-10-13T21:11:09.733Z,101325.88
2022-10-13T21:16:16.327Z,101347.69
2022-10-13T21:21:21.053Z,101340.44
2022-10-13T21:26:27.927Z,101332.88
2022-10-13T21:31:31.912Z,101342.69
2022-10-13T21:36:35.007Z,101344.81
2022-10-13T21:41:37.614Z,101345.66
2022-10-13T21:46:41.665Z,101354.38
2022-10-13T21:51:44.341Z,101350.69
2022-10-13T21:56:47.083Z,101357.03
2022-10-13T22:01:50.961Z,101359.16
2022-10-13T22:06:53.505Z,101359.16
2022-10-13T22:12:01.003Z,101358.94
2022-10-13T22:17:07.249Z,101352.78
2022-10-13T22:22:09.781Z,101354.03
2022-10-13T22:27:12.741Z,101347.78
2022-10-13T22:32:16.589Z,101346.84
2022-10-13T22:37:19.576Z,101339.59
2022-10-13T22:42:22.756Z,101335.22
2022-10-13T22:47:26.937Z,101332.34
2022-10-13T22:52:29.646Z,101334.03
2022-10-13T22:57:32.227Z,101327.97
2022-10-13T23:02:36.114Z,101330.75
2022-10-13T23:07:38.676Z,101326.06
2022-10-13T23:12:41.199Z,101319.03
2022-10-13T23:17:45.041Z,101317.44
2022-10-13T23:22:47.572Z,101314.78
2022-10-13T23:27:50.080Z,101307.75
2022-10-13T23:32:53.950Z,101302.44
2022-10-13T23:37:56.628Z,101301.81
2022-10-13T23:42:59.139Z,101293.94
2022-10-13T23:48:03.013Z,101302.03
2022-10-13T23:53:07.790Z,101294.78
2022-10-13T23:58:10.873Z,101288.81
